Time;durP1;ratioP1;P1;durP2;ratioP2;P2;SDS_P1;SDS_P2;PMS_P1;PMS_P2;Temp;Humidity;BMP_temperature;BMP_pressure;BME280_temperature;BME280_humidity;BME280_pressure;Samples;Min_cycle;Max_cycle;Signal;HPM_P1;HPM_P2
2023/10/13 00:01:22;;;;;;;1.07;1.07;;;;;;;-144.99;100.00;67352.69;5074126;28;20555;-79
2023/10/13 00:03:48;;;;;;;0.13;0.13;;;;;;;-144.99;100.00;67352.69;5074217;28;20261;-78
2023/10/13 00:06:13;;;;;;;0.20;0.10;;;;;;;-144.99;100.00;67352.69;5074205;28;20676;-78
2023/10/13 00:08:39;;;;;;;2.63;2.43;;;;;;;-144.99;100.00;67352.69;5074125;28;20266;-79
2023/10/13 00:11:05;;;;;;;1.00;1.00;;;;;;;-144.99;100.00;67352.69;5073068;28;20284;-78
2023/10/13 00:13:49;;;;;;;0.70;0.40;;;;;;;-144.99;100.00;67352.69;5073672;28;20178;-79
2023/10/13 00:16:17;;;;;;;1.97;1.87;;;;;;;-144.99;100.00;67352.69;5073650;28;20190;-78
2023/10/13 00:18:43;;;;;;;1.00;0.50;;;;;;;-144.99;100.00;67352.69;5074444;28;20201;-80
2023/10/13 00:21:13;;;;;;;0.10;0.10;;;;;;;-144.99;100.00;67352.69;5072679;28;20228;-79
2023/10/13 00:23:52;;;;;;;0.23;0.23;;;;;;;-144.99;100.00;67352.69;5073753;28;20182;-79
2023/10/13 00:26:28;;;;;;;0.00;0.00;;;;;;;-144.99;100.00;67352.69;5073915;28;20289;-78
2023/10/13 00:31:36;;;;;;;0.00;0.00;;;;;;;-144.99;100.00;67352.69;5073921;28;20249;-78
2023/10/13 00:34:09;;;;;;;0.00;0.00;;;;;;;-144.99;100.00;67352.69;5064176;28;20616;-78
2023/10/13 00:36:35;;;;;;;0.00;0.00;;;;;;;-144.99;100.00;67352.69;5073802;28;20194;-78
2023/10/13 00:39:01;;;;;;;0.00;0.00;;;;;;;-144.99;100.00;67352.69;5073348;28;20531;-79
2023/10/13 00:41:49;;;;;;;1.80;1.50;;;;;;;-144.99;100.00;67352.69;5071557;28;20710;-80
2023/10/13 00:44:13;;;;;;;0.50;0.50;;;;;;;-144.99;100.00;67352.69;5073372;28;20677;-79
2023/10/13 00:46:38;;;;;;;0.00;0.00;;;;;;;-144.99;100.00;67352.69;5073219;28;20209;-80
2023/10/13 00:49:05;;;;;;;0.63;0.63;;;;;;;-144.99;100.00;67352.69;5072028;28;20179;-79
2023/10/13 00:51:40;;;;;;;0.00;0.00;;;;;;;-144.99;100.00;67352.69;5073181;28;20667;-78
2023/10/13 00:54:10;;;;;;;0.30;0.30;;;;;;;-144.99;100.00;67352.69;5072196;28;20216;-80
2023/10/13 00:56:48;;;;;;;4.97;4.63;;;;;;;-144.99;100.00;67352.69;5073641;28;20266;-79
2023/10/13 00:59:17;;;;;;;0.00;0.00;;;;;;;-144.99;100.00;67352.69;5073793;28;20583;-79
2023/10/13 01:01:43;;;;;;;0.00;0.00;;;;;;;-144.99;100.00;67352.69;5073654;28;20178;-79
2023/10/13 01:04:12;;;;;;;0.13;0.13;;;;;;;-144.99;100.00;67352.69;5073602;28;20699;-79
2023/10/13 01:06:40;;;;;;;2.93;2.73;;;;;;;-144.99;100.00;67352.69;5072373;28;20215;-79
2023/10/13 01:09:12;;;;;;;2.00;1.80;;;;;;;-144.99;100.00;67352.69;5075759;28;20631;-78
2023/10/13 01:11:39;;;;;;;1.80;1.67;;;;;;;-144.99;100.00;67352.69;5077404;28;20182;-79
2023/10/13 01:14:05;;;;;;;1.30;1.10;;;;;;;-144.99;100.00;67352.69;5076828;28;20192;-79
2023/10/13 01:16:30;;;;;;;0.93;0.93;;;;;;;-144.99;100.00;67352.69;5077520;28;20194;-79
2023/10/13 01:18:59;;;;;;;0.00;0.00;;;;;;;-144.99;100.00;67352.69;5077231;28;20189;-79
2023/10/13 01:21:29;;;;;;;1.80;1.70;;;;;;;-144.99;100.00;67352.69;5075985;28;20178;-80
2023/10/13 01:23:55;;;;;;;2.50;2.40;;;;;;;-144.99;100.00;67352.69;5075684;28;20713;-78
2023/10/13 01:26:27;;;;;;;5.13;4.70;;;;;;;-144.99;100.00;67352.69;5076929;28;20206;-79
2023/10/13 01:28:57;;;;;;;2.30;2.13;;;;;;;-144.99;100.00;67352.69;5075332;28;20178;-79
2023/10/13 01:31:37;;;;;;;7.43;3.07;;;;;;;-144.99;100.00;67352.69;5077070;28;20171;-79
2023/10/13 01:34:02;;;;;;;1.60;1.27;;;;;;;-144.99;100.00;67352.69;5076827;28;20323;-79
2023/10/13 01:36:28;;;;;;;5.50;5.00;;;;;;;-144.99;100.00;67352.69;5075568;28;20248;-79
2023/10/13 01:38:54;;;;;;;4.47;4.17;;;;;;;-144.99;100.00;67352.69;5076974;28;20175;-79
2023/10/13 01:41:21;;;;;;;3.33;3.13;;;;;;;-144.99;100.00;67352.69;5077420;28;20279;-79
2023/10/13 01:43:46;;;;;;;5.00;4.60;;;;;;;-144.99;100.00;67352.69;5074981;28;20670;-79
2023/10/13 01:46:21;;;;;;;3.93;3.23;;;;;;;-144.99;100.00;67352.69;5075265;28;20202;-80
2023/10/13 01:48:47;;;;;;;3.40;3.10;;;;;;;-144.99;100.00;67352.69;5075697;28;20184;-78
2023/10/13 01:51:13;;;;;;;6.83;3.57;;;;;;;-144.99;100.00;67352.69;5076580;28;20170;-80
2023/10/13 01:53:41;;;;;;;3.07;2.83;;;;;;;-144.99;100.00;67352.69;5076641;28;20247;-79
2023/10/13 01:56:10;;;;;;;2.30;2.20;;;;;;;-144.99;100.00;67352.69;5076698;28;20226;-79
2023/10/13 01:58:42;;;;;;;1.93;1.77;;;;;;;-144.99;100.00;67352.69;5076751;28;20174;-79
2023/10/13 02:01:10;;;;;;;3.80;3.57;;;;;;;-144.99;100.00;67352.69;5076743;28;20178;-79
2023/10/13 02:03:41;;;;;;;3.07;2.87;;;;;;;-144.99;100.00;67352.69;5076686;28;20178;-79
2023/10/13 02:06:10;;;;;;;2.73;2.53;;;;;;;-144.99;100.00;67352.69;5074950;28;20205;-80
2023/10/13 02:08:39;;;;;;;3.43;3.17;;;;;;;-144.99;100.00;67352.69;5076460;28;20175;-78
2023/10/13 02:11:07;;;;;;;3.13;2.93;;;;;;;-144.99;100.00;67352.69;5076845;28;20178;-80
2023/10/13 02:13:32;;;;;;;7.57;3.33;;;;;;;-144.99;100.00;67352.69;5075066;28;20182;-79
2023/10/13 02:16:03;;;;;;;1.33;1.30;;;;;;;-144.99;100.00;67352.69;5076714;28;20664;-79
2023/10/13 02:18:33;;;;;;;3.53;3.23;;;;;;;-144.99;100.00;67352.69;5075645;28;20189;-79
2023/10/13 02:21:12;;;;;;;4.93;3.50;;;;;;;-144.99;100.00;67352.69;5074151;28;20205;-78
2023/10/13 02:23:43;;;;;;;4.63;4.23;;;;;;;-144.99;100.00;67352.69;5076459;28;20182;-79
2023/10/13 02:28:54;;;;;;;1.87;1.63;;;;;;;-144.99;100.00;67352.69;5076585;28;20312;-79
2023/10/13 02:31:24;;;;;;;8.17;2.93;;;;;;;-144.99;100.00;67352.69;5076695;28;20175;-80
2023/10/13 02:33:49;;;;;;;1.83;1.73;;;;;;;-144.99;100.00;67352.69;5076260;28;20190;-80
2023/10/13 02:36:22;;;;;;;1.50;1.30;;;;;;;-144.99;100.00;67352.69;5076591;28;20197;-79
2023/10/13 02:38:47;;;;;;;1.20;0.77;;;;;;;-144.99;100.00;67352.69;5075099;28;20182;-80
2023/10/13 02:41:27;;;;;;;0.50;0.50;;;;;;;-144.99;100.00;67352.69;5075082;28;20610;-79
2023/10/13 02:43:53;;;;;;;0.10;0.10;;;;;;;-144.99;100.00;67352.69;5074780;28;20178;-79
2023/10/13 02:46:23;;;;;;;0.20;0.20;;;;;;;-144.99;100.00;67352.69;5076481;28;20198;-79
2023/10/13 02:48:57;;;;;;;2.63;2.43;;;;;;;-144.99;100.00;67352.69;5075179;28;20612;-79
2023/10/13 02:51:31;;;;;;;3.20;2.93;;;;;;;-144.99;100.00;67352.69;5076378;28;20178;-80
2023/10/13 02:54:02;;;;;;;1.70;1.60;;;;;;;-144.99;100.00;67352.69;5074256;28;20647;-80
2023/10/13 02:56:28;;;;;;;0.63;0.63;;;;;;;-144.99;100.00;67352.69;5076388;28;20222;-80
2023/10/13 02:58:56;;;;;;;1.43;1.40;;;;;;;-144.99;100.00;67352.69;5075019;28;20546;-80
2023/10/13 03:01:27;;;;;;;1.23;1.13;;;;;;;-144.99;100.00;67352.69;5074871;28;20178;-79
2023/10/13 03:03:58;;;;;;;2.47;2.27;;;;;;;-144.99;100.00;67352.69;5074514;28;20264;-79
2023/10/13 03:06:32;;;;;;;3.23;2.93;;;;;;;-144.99;100.00;67352.69;5076147;28;20289;-79
2023/10/13 03:09:18;;;;;;;0.00;0.00;;;;;;;-144.99;100.00;67352.69;5074417;28;20185;-80
2023/10/13 03:11:50;;;;;;;0.73;0.47;;;;;;;-144.99;100.00;67352.69;5075248;28;20178;-80
2023/10/13 03:14:23;;;;;;;1.20;1.10;;;;;;;-144.99;100.00;67352.69;5075516;28;20546;-80
2023/10/13 03:17:05;;;;;;;0.63;0.33;;;;;;;-144.99;100.00;67352.69;5075779;28;20197;-79
2023/10/13 03:19:33;;;;;;;0.97;0.97;;;;;;;-144.99;100.00;67352.69;5076478;28;20183;-80
2023/10/13 03:22:15;;;;;;;2.57;2.37;;;;;;;-144.99;100.00;67352.69;5076089;28;20189;-79
2023/10/13 03:24:46;;;;;;;1.07;1.07;;;;;;;-144.99;100.00;67352.69;5075572;28;20651;-80
2023/10/13 03:27:16;;;;;;;0.00;0.00;;;;;;;-144.99;100.00;67352.69;5074748;28;20209;-80
2023/10/13 03:29:43;;;;;;;0.20;0.20;;;;;;;-144.99;100.00;67352.69;5074588;28;20217;-80
2023/10/13 03:32:15;;;;;;;0.87;0.87;;;;;;;-144.99;100.00;67352.69;5075385;28;20177;-80
2023/10/13 03:34:53;;;;;;;0.00;0.00;;;;;;;-144.99;100.00;67352.69;5076042;28;20178;-80
2023/10/13 03:37:35;;;;;;;0.00;0.00;;;;;;;-144.99;100.00;67352.69;5075736;28;20190;-80
2023/10/13 03:43:04;;;;;;;0.20;0.20;;;;;;;-144.99;100.00;67352.69;5075616;28;20187;-80
2023/10/13 03:45:42;;;;;;;0.00;0.00;;;;;;;-144.99;100.00;67352.69;5076105;28;20679;-80
2023/10/13 03:51:14;;;;;;;0.00;0.00;;;;;;;-144.99;100.00;67352.69;5074159;28;20183;-79
2023/10/13 03:53:52;;;;;;;0.00;0.00;;;;;;;-144.99;100.00;67352.69;5071978;28;20174;-79
2023/10/13 03:56:38;;;;;;;0.00;0.00;;;;;;;-144.99;100.00;67352.69;5072218;28;20208;-80
2023/10/13 03:59:18;;;;;;;0.00;0.00;;;;;;;-144.99;100.00;67352.69;5074515;28;20526;-79
2023/10/13 04:01:58;;;;;;;0.00;0.00;;;;;;;-144.99;100.00;67352.69;5073980;28;20181;-79
2023/10/13 04:17:27;;;;;;;0.73;0.73;;;;;;;-144.99;100.00;67352.69;5072886;28;20213;-80
2023/10/13 04:24:08;;;;;;;0.23;0.23;;;;;;;-144.99;100.00;67352.69;5075172;28;20174;-80
2023/10/13 04:30:59;;;;;;;0.00;0.00;;;;;;;-144.99;100.00;67352.69;5075655;28;20174;-80
2023/10/13 04:36:14;;;;;;;0.00;0.00;;;;;;;-144.99;100.00;67352.69;5075598;28;20206;-80
2023/10/13 04:41:37;;;;;;;0.17;0.17;;;;;;;-144.99;100.00;67352.69;5075877;28;20178;-80
2023/10/13 04:54:49;;;;;;;0.00;0.00;;;;;;;-144.99;100.00;67352.69;5079366;28;20178;-80
2023/10/13 06:29:33;;;;;;;0.57;0.40;;;;;;;-144.99;100.00;67352.69;5074733;28;20728;-80
2023/10/13 06:32:01;;;;;;;12.47;2.60;;;;;;;-144.99;100.00;67352.69;5073350;28;20182;-79
2023/10/13 06:34:37;;;;;;;0.73;0.30;;;;;;;-144.99;100.00;67352.69;5073579;28;20267;-80
2023/10/13 06:37:22;;;;;;;2.57;2.37;;;;;;;-144.99;100.00;67352.69;5070654;28;20255;-80
2023/10/13 06:39:48;;;;;;;0.00;0.00;;;;;;;-144.99;100.00;67352.69;5072473;28;20261;-80
2023/10/13 06:42:13;;;;;;;1.83;1.70;;;;;;;-144.99;100.00;67352.69;5074399;28;20174;-80
2023/10/13 06:44:39;;;;;;;1.20;1.10;;;;;;;-144.99;100.00;67352.69;5073250;28;20666;-79
2023/10/13 06:47:05;;;;;;;0.43;0.43;;;;;;;-144.99;100.00;67352.69;5074335;28;20198;-80
2023/10/13 06:49:38;;;;;;;0.33;0.33;;;;;;;-144.99;100.00;67352.69;5073910;28;20661;-81
2023/10/13 06:52:06;;;;;;;0.23;0.23;;;;;;;-144.99;100.00;67352.69;5071187;28;20178;-79
2023/10/13 06:54:34;;;;;;;0.70;0.70;;;;;;;-144.99;100.00;67352.69;5074418;28;20181;-79
2023/10/13 06:57:03;;;;;;;0.50;0.50;;;;;;;-144.99;100.00;67352.69;5074473;28;20209;-80
2023/10/13 06:59:32;;;;;;;0.00;0.00;;;;;;;-144.99;100.00;67352.69;5074654;28;20178;-79
2023/10/13 07:02:09;;;;;;;0.00;0.00;;;;;;;-144.99;100.00;67352.69;5072936;28;20546;-80
2023/10/13 07:04:39;;;;;;;0.00;0.00;;;;;;;-144.99;100.00;67352.69;5074926;28;20198;-79
2023/10/13 07:07:05;;;;;;;1.03;0.93;;;;;;;-144.99;100.00;67352.69;5073971;28;20206;-81
2023/10/13 07:12:06;;;;;;;1.63;1.53;;;;;;;-144.99;100.00;67352.69;5072088;28;20182;-80
2023/10/13 07:14:33;;;;;;;0.40;0.40;;;;;;;-144.99;100.00;67352.69;5070381;28;20209;-80
2023/10/13 07:17:04;;;;;;;7.60;2.17;;;;;;;-144.99;100.00;67352.69;5072913;28;20189;-81
2023/10/13 07:19:31;;;;;;;1.33;1.30;;;;;;;-144.99;100.00;67352.69;5073247;28;20186;-81
2023/10/13 07:22:18;;;;;;;0.20;0.20;;;;;;;-144.99;100.00;67352.69;5071964;28;20186;-80
2023/10/13 07:24:45;;;;;;;0.73;0.67;;;;;;;-144.99;100.00;67352.69;5074496;28;20189;-80
2023/10/13 07:27:10;;;;;;;0.00;0.00;;;;;;;-144.99;100.00;67352.69;5086194;28;20571;-81
2023/10/13 07:29:36;;;;;;;2.47;1.47;;;;;;;-144.99;100.00;67352.69;5078145;28;20647;-79
2023/10/13 07:32:02;;;;;;;0.00;0.00;;;;;;;-144.99;100.00;67352.69;5074321;28;20265;-79
2023/10/13 07:34:32;;;;;;;0.77;0.77;;;;;;;-144.99;100.00;67352.69;5074499;28;20660;-78
2023/10/13 07:37:01;;;;;;;6.00;1.13;;;;;;;-144.99;100.00;67352.69;5068041;28;20742;-80
2023/10/13 07:39:33;;;;;;;4.80;3.30;;;;;;;-144.99;100.00;67352.69;5071928;28;20236;-79
2023/10/13 07:42:06;;;;;;;1.43;1.33;;;;;;;-144.99;100.00;67352.69;5073878;28;20555;-80
2023/10/13 07:44:45;;;;;;;0.77;0.77;;;;;;;-144.99;100.00;67352.69;5074092;28;20198;-81
2023/10/13 07:47:11;;;;;;;1.97;1.87;;;;;;;-144.99;100.00;67352.69;5075676;28;20682;-81
2023/10/13 07:49:37;;;;;;;5.97;3.73;;;;;;;-144.99;100.00;67352.69;5073732;28;20192;-81
2023/10/13 07:57:32;;;;;;;3.43;2.03;;;;;;;-144.99;100.00;67352.69;5077081;28;20204;-80
2023/10/13 08:00:11;;;;;;;2.40;2.20;;;;;;;-144.99;100.00;67352.69;5074795;28;20635;-81
2023/10/13 08:02:51;;;;;;;2.77;1.77;;;;;;;-144.99;100.00;67352.69;5076091;28;20239;-80
2023/10/13 08:05:39;;;;;;;1.63;0.50;;;;;;;-144.99;100.00;67352.69;5074521;28;20300;-80
2023/10/13 08:08:04;;;;;;;0.57;0.57;;;;;;;-144.99;100.00;67352.69;5076345;28;20203;-81
2023/10/13 08:10:35;;;;;;;6.07;2.40;;;;;;;-144.99;100.00;67352.69;5072123;28;20174;-79
2023/10/13 08:13:01;;;;;;;2.60;2.40;;;;;;;-144.99;100.00;67352.69;5072940;28;20190;-80
2023/10/13 08:15:32;;;;;;;3.10;2.67;;;;;;;-144.99;100.00;67352.69;5075753;28;20599;-81
2023/10/13 08:18:00;;;;;;;2.37;2.17;;;;;;;-144.99;100.00;67352.69;5075216;28;20185;-79
2023/10/13 08:20:30;;;;;;;1.73;1.60;;;;;;;-144.99;100.00;67352.69;5076216;28;20205;-80
2023/10/13 08:23:13;;;;;;;1.47;1.10;;;;;;;-144.99;100.00;67352.69;5075719;28;20178;-80
2023/10/13 08:28:53;;;;;;;1.43;1.27;;;;;;;-144.99;100.00;67352.69;5075743;28;20273;-81
2023/10/13 08:31:25;;;;;;;3.20;1.03;;;;;;;-144.99;100.00;67352.69;5073600;28;20568;-81
2023/10/13 08:33:57;;;;;;;1.00;1.00;;;;;;;-144.99;100.00;67352.69;5090497;22;20207;-84
2023/10/13 08:36:30;;;;;;;1.20;1.10;;;;;;;-144.99;100.00;67352.69;5050615;28;20195;-83
2023/10/13 08:38:56;;;;;;;0.90;0.90;;;;;;;-144.99;100.00;67352.69;5054688;28;20196;-84
2023/10/13 08:43:50;;;;;;;1.97;1.87;;;;;;;-144.99;100.00;67352.69;5052231;28;20210;-84
2023/10/13 08:46:28;;;;;;;0.87;0.60;;;;;;;-144.99;100.00;67352.69;5055309;28;20199;-84
2023/10/13 08:49:15;;;;;;;0.20;0.20;;;;;;;-144.99;100.00;67352.69;5044212;28;20188;-84
2023/10/13 08:51:45;;;;;;;0.70;0.70;;;;;;;-144.99;100.00;67352.69;5049873;28;20187;-83
2023/10/13 08:54:33;;;;;;;3.70;2.07;;;;;;;-144.99;100.00;67352.69;5047755;28;20203;-84
2023/10/13 08:57:05;;;;;;;1.63;1.53;;;;;;;-144.99;100.00;67352.69;5052347;28;20175;-83
2023/10/13 08:59:38;;;;;;;1.20;1.10;;;;;;;-144.99;100.00;67352.69;5053282;28;20175;-83
2023/10/13 09:02:17;;;;;;;3.17;1.73;;;;;;;-144.99;100.00;67352.69;5054445;28;20175;-84
2023/10/13 09:04:47;;;;;;;1.20;1.10;;;;;;;-144.99;100.00;67352.69;5045113;28;20782;-84
2023/10/13 09:07:15;;;;;;;2.73;2.30;;;;;;;-144.99;100.00;67352.69;5047871;28;20546;-83
2023/10/13 09:12:13;;;;;;;2.87;0.83;;;;;;;-144.99;100.00;67352.69;5053863;28;20675;-84
2023/10/13 09:14:54;;;;;;;0.37;0.37;;;;;;;-144.99;100.00;67352.69;5053500;28;20246;-84
2023/10/13 09:19:48;;;;;;;3.40;2.00;;;;;;;-144.99;100.00;67352.69;5053203;28;20183;-83
2023/10/13 09:22:35;;;;;;;0.43;0.43;;;;;;;-144.99;100.00;67352.69;5032279;28;20215;-81
2023/10/13 09:25:02;;;;;;;0.33;0.33;;;;;;;-144.99;100.00;67352.69;5033962;28;20208;-81
2023/10/13 09:27:28;;;;;;;1.07;1.07;;;;;;;-144.99;100.00;67352.69;5033053;28;20184;-83
2023/10/13 09:30:09;;;;;;;1.83;1.67;;;;;;;-144.99;100.00;67352.69;5036455;28;20585;-84
2023/10/13 09:32:45;;;;;;;0.20;0.20;;;;;;;-144.99;100.00;67352.69;5036535;28;20513;-82
2023/10/13 09:35:16;;;;;;;0.30;0.30;;;;;;;-144.99;100.00;67352.69;5048522;28;20214;-81
2023/10/13 09:37:46;;;;;;;0.30;0.30;;;;;;;-144.99;100.00;67352.69;5046710;28;20729;-81
2023/10/13 09:40:38;;;;;;;0.23;0.23;;;;;;;-144.99;100.00;67352.69;5036049;28;20191;-82
2023/10/13 09:43:07;;;;;;;0.20;0.20;;;;;;;-144.99;100.00;67352.69;5047572;28;20202;-82
2023/10/13 09:45:39;;;;;;;3.60;1.93;;;;;;;-144.99;100.00;67352.69;5054769;28;20217;-81
2023/10/13 09:48:21;;;;;;;0.23;0.23;;;;;;;-144.99;100.00;67352.69;5054973;28;20653;-82
2023/10/13 09:50:51;;;;;;;2.80;1.47;;;;;;;-144.99;100.00;67352.69;5056582;28;20190;-81
2023/10/13 09:53:18;;;;;;;0.10;0.10;;;;;;;-144.99;100.00;67352.69;5055785;28;20195;-82
2023/10/13 09:56:11;;;;;;;0.20;0.20;;;;;;;-144.99;100.00;67352.69;5054140;28;20270;-81
2023/10/13 09:58:37;;;;;;;1.77;1.47;;;;;;;-144.99;100.00;67352.69;5054147;28;20317;-81
2023/10/13 10:01:09;;;;;;;2.63;1.27;;;;;;;-144.99;100.00;67352.69;5053927;28;20183;-82
2023/10/13 10:03:50;;;;;;;19.60;1.83;;;;;;;-144.99;100.00;67352.69;5053252;28;20209;-80
2023/10/13 10:06:27;;;;;;;1.37;1.27;;;;;;;-144.99;100.00;67352.69;5051047;28;20215;-81
2023/10/13 10:09:11;;;;;;;0.40;0.40;;;;;;;-144.99;100.00;67352.69;5051045;28;20186;-81
2023/10/13 10:12:00;;;;;;;2.63;1.37;;;;;;;-144.99;100.00;67352.69;5054980;28;20685;-81
2023/10/13 10:15:02;;;;;;;5.90;2.13;;;;;;;-144.99;100.00;67352.69;5056670;28;20219;-80
2023/10/13 10:17:29;;;;;;;4.07;1.20;;;;;;;-144.99;100.00;67352.69;5041844;28;20198;-79
2023/10/13 10:19:56;;;;;;;0.47;0.47;;;;;;;-144.99;100.00;67352.69;5052777;28;20218;-79
2023/10/13 10:22:36;;;;;;;1.97;1.53;;;;;;;-144.99;100.00;67352.69;5048828;28;20396;-79
2023/10/13 10:25:28;;;;;;;2.40;2.10;;;;;;;-144.99;100.00;67352.69;5046394;28;20294;-80
2023/10/13 10:27:57;;;;;;;2.47;2.20;;;;;;;-144.99;100.00;67352.69;5053663;28;20209;-79
2023/10/13 10:30:29;;;;;;;2.17;2.00;;;;;;;-144.99;100.00;67352.69;5051909;28;20676;-79
2023/10/13 10:32:59;;;;;;;0.40;0.37;;;;;;;-144.99;100.00;67352.69;5053118;28;20546;-80
2023/10/13 10:35:29;;;;;;;1.77;1.23;;;;;;;-144.99;100.00;67352.69;5053515;28;20218;-79
2023/10/13 10:38:03;;;;;;;3.57;2.30;;;;;;;-144.99;100.00;67352.69;5053726;28;20620;-79
2023/10/13 10:40:47;;;;;;;9.60;2.33;;;;;;;-144.99;100.00;67352.69;5049132;28;20215;-79
2023/10/13 10:43:17;;;;;;;2.53;2.20;;;;;;;-144.99;100.00;67352.69;5047870;28;20178;-79
2023/10/13 10:45:49;;;;;;;1.37;1.00;;;;;;;-144.99;100.00;67352.69;5053463;28;20231;-79
2023/10/13 10:48:18;;;;;;;12.43;3.07;;;;;;;-144.99;100.00;67352.69;5052173;28;20190;-79
2023/10/13 10:50:54;;;;;;;0.03;0.03;;;;;;;-144.99;100.00;67352.69;5051770;28;20185;-80
2023/10/13 10:53:22;;;;;;;10.63;2.83;;;;;;;-144.99;100.00;67352.69;5052872;28;20556;-79
2023/10/13 10:55:48;;;;;;;0.20;0.20;;;;;;;-144.99;100.00;67352.69;5046388;28;20200;-79
2023/10/13 10:58:28;;;;;;;0.80;0.80;;;;;;;-144.99;100.00;67352.69;5052893;28;20188;-79
2023/10/13 11:01:10;;;;;;;2.90;1.50;;;;;;;-144.99;100.00;67352.69;5051587;28;20185;-79
2023/10/13 11:03:37;;;;;;;6.63;2.13;;;;;;;-144.99;100.00;67352.69;5052456;28;20625;-79
2023/10/13 11:06:04;;;;;;;0.63;0.63;;;;;;;-144.99;100.00;67352.69;5052637;28;20208;-79
2023/10/13 11:08:33;;;;;;;2.30;0.77;;;;;;;-144.99;100.00;67352.69;5053029;28;20178;-79
2023/10/13 11:11:04;;;;;;;0.87;0.53;;;;;;;-144.99;100.00;67352.69;5051835;28;20583;-80
2023/10/13 11:13:50;;;;;;;3.93;2.87;;;;;;;-144.99;100.00;67352.69;5062615;28;20286;-79
2023/10/13 11:16:25;;;;;;;10.73;3.00;;;;;;;-144.99;100.00;67352.69;5070172;28;20545;-79
2023/10/13 11:19:06;;;;;;;2.03;2.03;;;;;;;-144.99;100.00;67352.69;5057322;28;20174;-81
2023/10/13 11:21:32;;;;;;;2.40;1.27;;;;;;;-144.99;100.00;67352.69;5055593;28;20184;-80
2023/10/13 11:24:03;;;;;;;0.40;0.40;;;;;;;-144.99;100.00;67352.69;5054808;28;20196;-80
2023/10/13 11:26:47;;;;;;;5.40;2.07;;;;;;;-144.99;100.00;67352.69;5054307;28;20650;-80
2023/10/13 11:29:13;;;;;;;2.07;1.87;;;;;;;-144.99;100.00;67352.69;5055375;28;20181;-80
2023/10/13 11:31:38;;;;;;;5.53;3.17;;;;;;;-144.99;100.00;67352.69;5054439;28;20192;-80
2023/10/13 11:34:05;;;;;;;4.33;2.10;;;;;;;-144.99;100.00;67352.69;5054521;28;20215;-80
2023/10/13 11:36:34;;;;;;;1.00;1.00;;;;;;;-144.99;100.00;67352.69;5045039;28;20272;-81
2023/10/13 11:39:00;;;;;;;3.10;1.80;;;;;;;-144.99;100.00;67352.69;5054870;28;20623;-80
2023/10/13 11:41:35;;;;;;;7.53;2.17;;;;;;;-144.99;100.00;67352.69;5055235;28;20184;-83
2023/10/13 11:44:23;;;;;;;1.77;1.67;;;;;;;-144.99;100.00;67352.69;5054017;28;20221;-85
2023/10/13 11:47:16;;;;;;;8.17;2.50;;;;;;;-144.99;100.00;67352.69;5054013;28;20179;-80
2023/10/13 11:49:42;;;;;;;4.23;2.83;;;;;;;-144.99;100.00;67352.69;5057280;28;20175;-80
2023/10/13 11:52:16;;;;;;;1.53;1.50;;;;;;;-144.99;100.00;67352.69;5056583;28;20266;-80
2023/10/13 11:54:42;;;;;;;10.87;4.53;;;;;;;-144.99;100.00;67352.69;5056795;28;20234;-80
2023/10/13 11:57:08;;;;;;;3.93;2.00;;;;;;;-144.99;100.00;67352.69;5053716;28;20234;-80
2023/10/13 11:59:36;;;;;;;6.87;2.97;;;;;;;-144.99;100.00;67352.69;5055000;28;20197;-80
2023/10/13 12:04:51;;;;;;;2.80;2.60;;;;;;;-144.99;100.00;67352.69;5055214;28;20267;-79
2023/10/13 12:07:19;;;;;;;3.50;2.23;;;;;;;-144.99;100.00;67352.69;5054054;28;20241;-81
2023/10/13 12:12:17;;;;;;;5.03;3.33;;;;;;;-144.99;100.00;67352.69;5055094;28;20206;-81
2023/10/13 12:14:52;;;;;;;9.63;2.60;;;;;;;-144.99;100.00;67352.69;5056185;28;20659;-80
2023/10/13 12:17:24;;;;;;;0.63;0.63;;;;;;;-144.99;100.00;67352.69;5055352;28;20617;-81
2023/10/13 12:19:59;;;;;;;7.43;0.80;;;;;;;-144.99;100.00;67352.69;5037257;28;20209;-80
2023/10/13 12:22:28;;;;;;;15.37;2.53;;;;;;;-144.99;100.00;67352.69;5033846;28;20696;-81
2023/10/13 12:24:56;;;;;;;7.07;1.83;;;;;;;-144.99;100.00;67352.69;5038089;28;20704;-81
2023/10/13 12:27:45;;;;;;;3.63;1.83;;;;;;;-144.99;100.00;67352.69;5039258;28;20267;-81
2023/10/13 12:30:22;;;;;;;1.90;1.80;;;;;;;-144.99;100.00;67352.69;5051816;28;20195;-80
2023/10/13 12:32:58;;;;;;;4.03;2.73;;;;;;;-144.99;100.00;67352.69;5057491;28;20217;-81
2023/10/13 12:35:30;;;;;;;7.77;2.47;;;;;;;-144.99;100.00;67352.69;5061088;28;20560;-80
2023/10/13 12:38:04;;;;;;;1.97;1.17;;;;;;;-144.99;100.00;67352.69;5057843;28;20194;-80
2023/10/13 12:53:55;;;;;;;2.37;1.63;;;;;;;-144.99;100.00;67352.69;5055692;28;20261;-80
2023/10/13 12:56:28;;;;;;;4.33;1.17;;;;;;;-144.99;100.00;67352.69;5056138;28;20173;-81
2023/10/13 12:58:54;;;;;;;1.80;0.67;;;;;;;-144.99;100.00;67352.69;5053027;28;20175;-81
2023/10/13 13:01:25;;;;;;;1.73;0.73;;;;;;;-144.99;100.00;67352.69;5058071;28;20195;-81
2023/10/13 13:03:55;;;;;;;3.33;2.77;;;;;;;-144.99;100.00;67352.69;5056221;28;20220;-80
2023/10/13 13:06:25;;;;;;;1.60;1.50;;;;;;;-144.99;100.00;67352.69;5059740;28;20213;-81
2023/10/13 13:08:54;;;;;;;2.37;2.13;;;;;;;-144.99;100.00;67352.69;5060755;28;20182;-81
2023/10/13 13:11:20;;;;;;;2.37;1.30;;;;;;;-144.99;100.00;67352.69;5061069;28;20559;-81
2023/10/13 13:13:46;;;;;;;3.80;2.27;;;;;;;-144.99;100.00;67352.69;5060216;28;20289;-80
2023/10/13 13:16:13;;;;;;;4.37;2.70;;;;;;;-144.99;100.00;67352.69;5060964;28;20179;-80
2023/10/13 13:18:39;;;;;;;1.87;1.47;;;;;;;-144.99;100.00;67352.69;5058184;28;20196;-81
2023/10/13 13:21:06;;;;;;;3.70;2.00;;;;;;;-144.99;100.00;67352.69;5060892;28;20202;-80
2023/10/13 13:23:31;;;;;;;13.33;2.73;;;;;;;-144.99;100.00;67352.69;5057932;28;20206;-81
2023/10/13 13:25:57;;;;;;;13.73;2.07;;;;;;;-144.99;100.00;67352.69;5060765;28;20278;-80
2023/10/13 13:28:24;;;;;;;4.77;2.37;;;;;;;-144.99;100.00;67352.69;5059604;28;20189;-81
2023/10/13 13:30:50;;;;;;;0.90;0.90;;;;;;;-144.99;100.00;67352.69;5058034;28;20208;-80
2023/10/13 13:33:23;;;;;;;5.17;3.20;;;;;;;-144.99;100.00;67352.69;5056932;28;20211;-80
2023/10/13 13:35:49;;;;;;;10.27;3.20;;;;;;;-144.99;100.00;67352.69;5055841;28;20200;-80
2023/10/13 13:38:22;;;;;;;0.60;0.60;;;;;;;-144.99;100.00;67352.69;5053599;28;20186;-80
2023/10/13 13:40:49;;;;;;;5.90;3.37;;;;;;;-144.99;100.00;67352.69;5054336;28;20181;-80
2023/10/13 13:43:31;;;;;;;4.33;2.70;;;;;;;-144.99;100.00;67352.69;5053115;28;20190;-80
2023/10/13 13:46:00;;;;;;;2.00;1.77;;;;;;;-144.99;100.00;67352.69;5053740;28;20305;-80
2023/10/13 13:48:27;;;;;;;1.40;1.30;;;;;;;-144.99;100.00;67352.69;5054850;28;20209;-80
2023/10/13 13:50:55;;;;;;;5.93;3.00;;;;;;;-144.99;100.00;67352.69;5043323;28;20193;-80
2023/10/13 13:53:27;;;;;;;5.63;3.30;;;;;;;-144.99;100.00;67352.69;5033653;28;20212;-80
2023/10/13 13:55:52;;;;;;;11.73;2.80;;;;;;;-144.99;100.00;67352.69;5034029;28;20281;-80
2023/10/13 13:58:18;;;;;;;5.80;1.87;;;;;;;-144.99;100.00;67352.69;5034208;28;20268;-80
2023/10/13 14:00:48;;;;;;;5.47;2.40;;;;;;;-144.99;100.00;67352.69;5034005;28;20226;-80
2023/10/13 14:03:30;;;;;;;10.63;2.00;;;;;;;-144.99;100.00;67352.69;5034580;28;20292;-79
2023/10/13 14:05:59;;;;;;;2.80;1.23;;;;;;;-144.99;100.00;67352.69;5043889;28;20230;-80
2023/10/13 14:08:27;;;;;;;2.17;2.07;;;;;;;-144.99;100.00;67352.69;5054235;28;20604;-80
2023/10/13 14:13:49;;;;;;;16.50;3.83;;;;;;;-144.99;100.00;67352.69;5054177;28;20595;-80
2023/10/13 14:16:20;;;;;;;1.40;0.97;;;;;;;-144.99;100.00;67352.69;5051707;28;20175;-80
2023/10/13 14:18:46;;;;;;;9.07;2.53;;;;;;;-144.99;100.00;67352.69;5053070;28;20275;-79
2023/10/13 14:21:24;;;;;;;13.93;2.17;;;;;;;-144.99;100.00;67352.69;5056543;28;20183;-81
2023/10/13 14:23:53;;;;;;;1.07;1.03;;;;;;;-144.99;100.00;67352.69;5073380;28;20194;-80
2023/10/13 14:26:21;;;;;;;4.27;0.77;;;;;;;-144.99;100.00;67352.69;5068384;28;20344;-81
2023/10/13 14:29:01;;;;;;;2.30;1.90;;;;;;;-144.99;100.00;67352.69;5060193;28;20191;-81
2023/10/13 14:31:27;;;;;;;2.90;1.30;;;;;;;-144.99;100.00;67352.69;5060636;28;20197;-81